Time;durP1;ratioP1;P1;durP2;ratioP2;P2;SDS_P1;SDS_P2;PMS_P1;PMS_P2;Temp;Humidity;BMP_temperature;BMP_pressure;BME280_temperature;BME280_humidity;BME280_pressure;Samples;Min_cycle;Max_cycle;Signal;HPM_P1;HPM_P2
2023/11/06 00:02:46;;;;;;;1.70;1.30;;;;;7.60;95478.00;;;;5029007;28;20209;-71
2023/11/06 00:05:37;;;;;;;2.37;1.77;;;;;7.40;95490.00;;;;5027016;28;20202;-70
2023/11/06 00:08:26;;;;;;;3.27;2.47;;;;;7.40;95494.00;;;;5025329;28;20206;-72
2023/11/06 00:11:17;;;;;;;2.00;1.57;;;;;6.90;95494.00;;;;5029575;28;20201;-72
2023/11/06 00:14:06;;;;;;;1.63;1.50;;;;;7.10;95493.00;;;;5029879;28;20221;-72
2023/11/06 00:16:55;;;;;;;1.90;1.53;;;;;6.90;95512.00;;;;5026825;28;20218;-71
2023/11/06 00:19:44;;;;;;;1.93;1.53;;;;;6.60;95503.00;;;;5026862;28;20202;-72
2023/11/06 00:22:33;;;;;;;2.50;2.27;;;;;6.80;95508.00;;;;5026313;28;20211;-71
2023/11/06 00:25:22;;;;;;;2.63;2.10;;;;;6.90;95509.00;;;;5026967;28;20591;-71
2023/11/06 00:28:12;;;;;;;2.90;2.40;;;;;7.00;95514.00;;;;5028021;28;20197;-71
2023/11/06 00:31:01;;;;;;;1.27;1.17;;;;;7.10;95516.00;;;;5030838;28;20204;-71
2023/11/06 00:33:51;;;;;;;1.37;1.10;;;;;6.60;95514.00;;;;5024756;28;20217;-70
2023/11/06 00:36:40;;;;;;;1.57;1.43;;;;;7.00;95537.00;;;;5025637;28;20221;-72
2023/11/06 00:39:29;;;;;;;2.93;2.33;;;;;7.30;95545.00;;;;5029629;28;20198;-71
2023/11/06 00:42:18;;;;;;;2.20;1.70;;;;;6.80;95551.00;;;;5028760;28;20204;-72
2023/11/06 00:45:09;;;;;;;1.67;1.40;;;;;6.80;95553.00;;;;5032554;28;20208;-72
2023/11/06 00:47:58;;;;;;;2.20;1.77;;;;;6.50;95564.00;;;;5030563;28;20202;-71
2023/11/06 00:50:47;;;;;;;1.50;1.40;;;;;6.20;95560.00;;;;5009420;28;20202;-71
2023/11/06 00:53:36;;;;;;;3.27;2.77;;;;;7.00;95578.00;;;;5010500;28;20604;-71
2023/11/06 00:56:25;;;;;;;3.00;2.40;;;;;7.00;95581.00;;;;5009244;28;20602;-71
2023/11/06 00:59:16;;;;;;;1.97;1.50;;;;;6.90;95580.00;;;;5007781;28;20210;-71
2023/11/06 01:02:06;;;;;;;2.10;1.80;;;;;6.60;95599.00;;;;5003173;28;20582;-71
2023/11/06 01:04:55;;;;;;;2.00;1.50;;;;;6.70;95605.00;;;;5000596;28;20582;-71
2023/11/06 01:07:44;;;;;;;2.47;1.80;;;;;7.10;95619.00;;;;5008437;28;20237;-71
2023/11/06 01:10:34;;;;;;;3.43;2.63;;;;;6.40;95616.00;;;;5007975;28;20214;-71
2023/11/06 01:13:22;;;;;;;2.00;1.60;;;;;6.50;95622.00;;;;5010358;28;20217;-72
2023/11/06 01:16:11;;;;;;;1.70;1.60;;;;;6.70;95620.00;;;;5008193;28;20226;-71
2023/11/06 01:19:04;;;;;;;3.70;2.67;;;;;6.70;95622.00;;;;5009289;28;20198;-71
2023/11/06 01:21:53;;;;;;;1.90;1.40;;;;;6.10;95629.00;;;;5007998;28;20229;-70
2023/11/06 01:24:42;;;;;;;2.07;1.60;;;;;6.10;95637.00;;;;5007156;28;20865;-71
2023/11/06 01:27:31;;;;;;;3.10;2.47;;;;;6.30;95630.00;;;;5008104;28;20233;-72
2023/11/06 01:30:20;;;;;;;2.37;1.70;;;;;6.60;95649.00;;;;5009055;28;20201;-71
2023/11/06 01:33:09;;;;;;;1.97;1.67;;;;;5.90;95646.00;;;;5006875;28;20249;-70
2023/11/06 01:35:59;;;;;;;2.13;1.60;;;;;5.70;95648.00;;;;5004283;28;20224;-72
2023/11/06 01:38:48;;;;;;;1.53;1.33;;;;;5.90;95659.00;;;;5003878;28;20837;-71
2023/11/06 01:41:38;;;;;;;2.40;2.03;;;;;6.10;95659.00;;;;5001051;28;20886;-71
2023/11/06 01:44:28;;;;;;;3.40;2.50;;;;;6.20;95660.00;;;;5002387;28;20205;-72
2023/11/06 01:47:17;;;;;;;3.27;2.40;;;;;6.40;95656.00;;;;5009130;28;20228;-71
2023/11/06 01:50:07;;;;;;;1.63;1.30;;;;;6.60;95664.00;;;;5023352;28;20214;-71
2023/11/06 01:52:59;;;;;;;1.70;1.47;;;;;6.80;95674.00;;;;5029299;28;20222;-71
2023/11/06 01:55:48;;;;;;;2.00;1.50;;;;;6.40;95668.00;;;;5023566;28;20960;-72
2023/11/06 01:58:38;;;;;;;2.77;2.20;;;;;6.40;95661.00;;;;5014874;28;20694;-72
2023/11/06 02:01:27;;;;;;;2.27;1.77;;;;;6.30;95675.00;;;;5028670;28;20216;-71
2023/11/06 02:04:16;;;;;;;2.37;1.80;;;;;6.20;95691.00;;;;5028399;28;20202;-72
2023/11/06 02:07:05;;;;;;;4.03;2.73;;;;;6.20;95680.00;;;;5028259;28;20714;-71
2023/11/06 02:09:58;;;;;;;1.20;1.10;;;;;6.00;95675.00;;;;5023933;28;20208;-72
2023/11/06 02:12:47;;;;;;;2.63;1.80;;;;;6.30;95677.00;;;;5027759;28;20213;-71
2023/11/06 02:15:36;;;;;;;3.47;2.67;;;;;6.00;95694.00;;;;5027360;28;20202;-71
2023/11/06 02:18:25;;;;;;;2.43;2.00;;;;;5.60;95694.00;;;;5027426;28;20213;-71
2023/11/06 02:21:14;;;;;;;2.43;1.77;;;;;5.40;95693.00;;;;5028510;28;20308;-71
2023/11/06 02:24:06;;;;;;;1.17;1.00;;;;;5.40;95694.00;;;;5022489;28;20194;-71
2023/11/06 02:26:57;;;;;;;1.93;1.60;;;;;5.80;95692.00;;;;5019039;28;20233;-72
2023/11/06 02:29:47;;;;;;;1.37;1.10;;;;;5.80;95698.00;;;;5027011;28;20236;-71
2023/11/06 02:32:36;;;;;;;3.03;2.40;;;;;5.40;95692.00;;;;5027113;28;20210;-71
2023/11/06 02:35:25;;;;;;;2.73;2.13;;;;;5.30;95690.00;;;;5030311;28;20597;-72
2023/11/06 02:38:14;;;;;;;2.60;1.90;;;;;5.50;95699.00;;;;5023277;28;20208;-71
2023/11/06 02:41:05;;;;;;;2.10;1.70;;;;;5.50;95704.00;;;;5022243;28;20317;-71
2023/11/06 02:43:54;;;;;;;1.90;1.50;;;;;6.00;95714.00;;;;5028356;28;20189;-71
2023/11/06 02:46:43;;;;;;;2.37;1.80;;;;;6.00;95708.00;;;;5023936;28;20492;-72
2023/11/06 02:49:32;;;;;;;2.87;2.43;;;;;6.20;95724.00;;;;5024721;28;20216;-71
2023/11/06 02:52:21;;;;;;;1.97;1.57;;;;;6.20;95718.00;;;;5020507;28;20205;-71
2023/11/06 02:55:11;;;;;;;2.23;1.73;;;;;5.20;95729.00;;;;5020314;28;20222;-71
2023/11/06 02:58:01;;;;;;;1.43;1.13;;;;;5.50;95741.00;;;;5027447;28;20205;-71
2023/11/06 03:00:50;;;;;;;1.97;1.60;;;;;5.60;95747.00;;;;5021790;28;20554;-72
2023/11/06 03:03:40;;;;;;;2.10;1.70;;;;;5.30;95742.00;;;;5026241;28;20201;-71
2023/11/06 03:06:30;;;;;;;3.77;2.60;;;;;5.50;95753.00;;;;5027177;28;20221;-71
2023/11/06 03:09:19;;;;;;;1.93;1.60;;;;;4.90;95758.00;;;;5025846;28;20213;-71
2023/11/06 03:12:09;;;;;;;2.57;2.10;;;;;4.60;95771.00;;;;5023139;28;20207;-71
2023/11/06 03:15:00;;;;;;;2.30;1.77;;;;;5.20;95783.00;;;;5031760;28;20244;-71
2023/11/06 03:17:49;;;;;;;1.40;1.30;;;;;5.40;95792.00;;;;5071491;22;20235;-64
2023/11/06 03:20:39;;;;;;;2.07;1.97;;;;;5.70;95791.00;;;;5067042;28;20246;-64
2023/11/06 03:23:28;;;;;;;2.13;1.93;;;;;5.20;95799.00;;;;5069755;28;20247;-64
2023/11/06 03:26:17;;;;;;;1.30;1.20;;;;;5.30;95808.00;;;;5070010;28;20227;-64
2023/11/06 03:29:06;;;;;;;1.80;1.70;;;;;5.70;95808.00;;;;5049409;28;20205;-64
2023/11/06 03:31:56;;;;;;;1.27;1.17;;;;;5.80;95822.00;;;;5054106;28;20203;-64
2023/11/06 03:34:46;;;;;;;1.47;1.37;;;;;5.30;95831.00;;;;5064948;28;20252;-64
2023/11/06 03:37:35;;;;;;;1.50;1.40;;;;;5.50;95834.00;;;;5051586;28;20225;-65
2023/11/06 03:40:24;;;;;;;0.90;0.90;;;;;5.20;95833.00;;;;5055404;28;20775;-64
2023/11/06 03:43:13;;;;;;;0.93;0.93;;;;;5.40;95846.00;;;;5057789;28;20430;-64
2023/11/06 03:46:03;;;;;;;1.50;1.40;;;;;5.20;95852.00;;;;5053776;28;20218;-64
2023/11/06 03:48:54;;;;;;;1.53;1.40;;;;;4.80;95860.00;;;;5052277;28;20688;-64
2023/11/06 03:51:43;;;;;;;0.87;0.87;;;;;5.00;95862.00;;;;5057893;28;20208;-64
2023/11/06 03:54:32;;;;;;;1.70;1.60;;;;;5.20;95868.00;;;;5047940;28;20424;-65
2023/11/06 03:57:21;;;;;;;1.50;1.40;;;;;5.50;95866.00;;;;5058054;28;20220;-64
2023/11/06 04:00:11;;;;;;;1.60;1.50;;;;;5.80;95877.00;;;;5055933;28;20226;-63
2023/11/06 04:03:00;;;;;;;1.10;1.10;;;;;5.40;95881.00;;;;5055884;28;20211;-63
2023/11/06 04:05:50;;;;;;;0.87;0.87;;;;;5.50;95882.00;;;;5065517;28;20227;-64
2023/11/06 04:08:39;;;;;;;1.43;1.33;;;;;5.50;95877.00;;;;5055551;28;20205;-64
2023/11/06 04:11:28;;;;;;;2.00;1.80;;;;;5.20;95880.00;;;;5049977;28;20216;-63
2023/11/06 04:14:17;;;;;;;1.43;1.33;;;;;5.20;95889.00;;;;5057676;28;20669;-64
2023/11/06 04:17:06;;;;;;;2.30;2.10;;;;;5.40;95889.00;;;;5052588;28;20471;-64
2023/11/06 04:19:55;;;;;;;1.13;1.07;;;;;5.20;95874.00;;;;5046246;28;20197;-63
2023/11/06 04:22:46;;;;;;;1.40;1.30;;;;;5.50;95881.00;;;;5049081;28;20701;-63
2023/11/06 04:25:35;;;;;;;1.83;1.73;;;;;5.30;95877.00;;;;5062069;28;20827;-64
2023/11/06 04:28:25;;;;;;;1.60;1.50;;;;;5.00;95874.00;;;;5056280;28;20805;-63
2023/11/06 04:31:14;;;;;;;1.27;1.17;;;;;5.20;95878.00;;;;5044495;28;20220;-63
2023/11/06 04:34:03;;;;;;;1.37;1.27;;;;;4.60;95883.00;;;;5049787;28;20204;-64
2023/11/06 04:36:52;;;;;;;0.90;0.90;;;;;4.30;95884.00;;;;5049450;28;20216;-63
2023/11/06 04:39:44;;;;;;;1.73;1.63;;;;;4.70;95887.00;;;;5053647;28;20205;-64
2023/11/06 04:42:33;;;;;;;1.60;1.50;;;;;4.30;95882.00;;;;5043906;28;20204;-65
2023/11/06 04:45:22;;;;;;;0.87;0.87;;;;;4.50;95876.00;;;;5042992;28;20459;-64
2023/11/06 04:48:11;;;;;;;1.27;1.20;;;;;4.20;95882.00;;;;5054028;28;20847;-63
2023/11/06 04:51:00;;;;;;;1.10;1.00;;;;;4.30;95893.00;;;;5046360;28;20427;-64
2023/11/06 04:53:49;;;;;;;1.40;1.30;;;;;4.30;95882.00;;;;5043587;28;20416;-63
2023/11/06 04:56:44;;;;;;;1.93;1.83;;;;;5.10;95899.00;;;;5050111;28;21180;-63
2023/11/06 04:59:33;;;;;;;1.60;1.50;;;;;5.20;95900.00;;;;5050184;28;20435;-63
2023/11/06 05:02:22;;;;;;;1.37;1.27;;;;;4.90;95901.00;;;;5053997;28;20821;-64
2023/11/06 05:05:11;;;;;;;1.40;1.30;;;;;5.20;95899.00;;;;5043529;28;20471;-64
2023/11/06 05:08:00;;;;;;;1.20;1.10;;;;;4.90;95904.00;;;;5046166;28;20841;-64
2023/11/06 05:10:49;;;;;;;1.30;1.20;;;;;4.40;95899.00;;;;5042853;28;20423;-63
2023/11/06 05:13:39;;;;;;;2.00;1.90;;;;;4.50;95907.00;;;;5053590;28;20427;-64
2023/11/06 05:16:29;;;;;;;1.50;1.43;;;;;4.00;95895.00;;;;5043650;28;20460;-63
2023/11/06 05:19:18;;;;;;;0.90;0.90;;;;;4.00;95911.00;;;;5048200;28;20201;-64
2023/11/06 05:22:07;;;;;;;1.40;1.30;;;;;4.30;95914.00;;;;5049508;28;20442;-63
2023/11/06 05:24:57;;;;;;;1.37;1.27;;;;;4.90;95921.00;;;;5041034;28;20475;-63
2023/11/06 05:27:46;;;;;;;1.40;1.30;;;;;4.70;95923.00;;;;5049773;28;20444;-63
2023/11/06 05:30:36;;;;;;;2.03;1.93;;;;;3.20;95909.00;;;;5047665;28;20442;-64
2023/11/06 05:33:25;;;;;;;1.23;1.13;;;;;3.50;95917.00;;;;5037286;28;20823;-63
2023/11/06 05:36:15;;;;;;;2.17;1.97;;;;;4.00;95924.00;;;;5046331;28;20466;-64
2023/11/06 05:39:04;;;;;;;2.37;2.17;;;;;3.90;95930.00;;;;5044582;28;20435;-63
2023/11/06 05:41:53;;;;;;;1.30;1.20;;;;;4.70;95935.00;;;;5039797;28;20456;-65
2023/11/06 05:44:43;;;;;;;2.20;2.10;;;;;4.10;95936.00;;;;5050551;28;20427;-65
2023/11/06 05:47:34;;;;;;;2.37;2.03;;;;;4.20;95935.00;;;;5036001;28;20508;-66
2023/11/06 05:50:23;;;;;;;1.40;1.30;;;;;3.60;95936.00;;;;5042970;28;20951;-63
2023/11/06 05:53:20;;;;;;;1.90;1.70;;;;;3.70;95943.00;;;;5146089;27;20596;-63
2023/11/06 05:56:10;;;;;;;2.07;1.93;;;;;4.00;95952.00;;;;5108393;27;20462;-63
2023/11/06 05:58:59;;;;;;;2.80;2.60;;;;;4.20;95951.00;;;;5109523;27;20441;-63
2023/11/06 06:01:49;;;;;;;2.23;2.03;;;;;4.40;95971.00;;;;5114993;27;20471;-63
2023/11/06 06:04:39;;;;;;;2.43;2.23;;;;;4.70;95980.00;;;;5115007;27;20908;-63
2023/11/06 06:07:28;;;;;;;2.67;2.40;;;;;4.90;95973.00;;;;5111846;27;20440;-64
2023/11/06 06:10:19;;;;;;;2.20;2.00;;;;;4.90;95982.00;;;;5112737;27;20437;-63
2023/11/06 06:13:08;;;;;;;2.00;1.80;;;;;5.20;95991.00;;;;5112845;27;20423;-63
2023/11/06 06:15:57;;;;;;;2.20;2.00;;;;;5.10;95981.00;;;;5108949;27;20432;-63
2023/11/06 06:18:46;;;;;;;1.60;1.50;;;;;4.50;95966.00;;;;5109440;27;20425;-63
2023/11/06 06:21:35;;;;;;;2.07;1.97;;;;;3.50;95984.00;;;;5123691;27;20259;-64
2023/11/06 06:24:25;;;;;;;1.00;1.00;;;;;3.70;95999.00;;;;5128318;27;20455;-63
2023/11/06 06:27:15;;;;;;;1.87;1.77;;;;;3.60;95989.00;;;;5125726;27;20474;-63
2023/11/06 06:30:06;;;;;;;1.07;1.03;;;;;4.30;95993.00;;;;5128706;27;20432;-63
2023/11/06 06:32:55;;;;;;;1.13;1.10;;;;;4.10;96016.00;;;;5119879;27;20430;-64
2023/11/06 06:35:44;;;;;;;1.73;1.63;;;;;4.00;96019.00;;;;5125716;27;20869;-64
2023/11/06 06:38:33;;;;;;;2.67;2.47;;;;;4.10;96023.00;;;;5108808;27;20441;-66
2023/11/06 06:41:22;;;;;;;1.70;1.60;;;;;4.00;96023.00;;;;5114811;27;20479;-63
2023/11/06 06:44:12;;;;;;;1.60;1.50;;;;;4.40;96038.00;;;;5116305;27;20427;-63
2023/11/06 06:47:02;;;;;;;1.50;1.40;;;;;5.10;96038.00;;;;5119977;27;20463;-62
2023/11/06 06:49:51;;;;;;;1.57;1.47;;;;;5.10;96042.00;;;;5113540;27;20454;-64
2023/11/06 06:52:40;;;;;;;2.17;2.00;;;;;4.20;96038.00;;;;5118312;27;20444;-63
2023/11/06 06:55:29;;;;;;;2.20;2.03;;;;;4.50;96037.00;;;;5122268;27;20818;-64
2023/11/06 06:58:21;;;;;;;1.70;1.60;;;;;4.70;96057.00;;;;5125728;27;20435;-64
2023/11/06 07:01:13;;;;;;;1.93;1.80;;;;;5.30;96054.00;;;;5115234;27;20972;-64
2023/11/06 07:04:02;;;;;;;1.43;1.33;;;;;5.00;96065.00;;;;5113660;27;20453;-63
2023/11/06 07:06:51;;;;;;;1.50;1.40;;;;;5.70;96062.00;;;;5117946;27;20455;-63
2023/11/06 07:09:40;;;;;;;2.13;1.93;;;;;5.80;96067.00;;;;5123072;27;20205;-64
2023/11/06 07:12:29;;;;;;;1.83;1.70;;;;;5.40;96064.00;;;;5114654;27;20210;-64
2023/11/06 07:15:19;;;;;;;1.30;1.20;;;;;5.10;96065.00;;;;5112856;27;20210;-64
2023/11/06 07:18:10;;;;;;;1.53;1.43;;;;;5.20;96066.00;;;;5107594;27;20253;-64
2023/11/06 07:20:59;;;;;;;1.50;1.40;;;;;5.50;96073.00;;;;5109088;27;20219;-63
2023/11/06 07:23:48;;;;;;;2.67;2.47;;;;;5.40;96076.00;;;;5101678;27;20242;-62
2023/11/06 07:26:38;;;;;;;2.03;1.93;;;;;5.10;96076.00;;;;5095024;27;20223;-64
2023/11/06 07:29:27;;;;;;;1.27;1.17;;;;;4.90;96080.00;;;;5109865;27;20214;-63
2023/11/06 07:32:16;;;;;;;2.17;1.97;;;;;5.30;96085.00;;;;5096356;27;20212;-63
2023/11/06 07:35:09;;;;;;;1.83;1.73;;;;;5.80;96078.00;;;;5102392;27;20597;-63
2023/11/06 07:37:58;;;;;;;1.50;1.40;;;;;6.00;96086.00;;;;5093307;27;20229;-63
2023/11/06 07:40:47;;;;;;;2.53;2.33;;;;;6.20;96086.00;;;;5093143;27;20221;-64
2023/11/06 07:43:36;;;;;;;1.90;1.80;;;;;6.50;96095.00;;;;5104711;27;20571;-64
2023/11/06 07:46:25;;;;;;;1.40;1.30;;;;;6.50;96094.00;;;;5116634;27;20218;-64
2023/11/06 07:49:14;;;;;;;1.73;1.63;;;;;6.60;96108.00;;;;5102592;27;20203;-64
2023/11/06 07:52:09;;;;;;;1.60;1.50;;;;;6.70;96108.00;;;;5118527;27;20674;-64
2023/11/06 07:54:58;;;;;;;1.27;1.20;;;;;6.90;96112.00;;;;5120302;27;20198;-64
2023/11/06 07:57:49;;;;;;;1.60;1.50;;;;;7.00;96113.00;;;;5105041;27;20230;-63
2023/11/06 08:00:38;;;;;;;1.97;1.87;;;;;6.70;96113.00;;;;5107311;27;20194;-63
2023/11/06 08:03:28;;;;;;;1.30;1.20;;;;;6.50;96120.00;;;;5109141;27;20313;-63
2023/11/06 08:06:17;;;;;;;1.20;1.10;;;;;6.50;96125.00;;;;5112388;27;20240;-63
2023/11/06 08:09:07;;;;;;;2.00;1.90;;;;;7.30;96129.00;;;;5116591;27;20203;-62
2023/11/06 08:11:56;;;;;;;1.30;1.23;;;;;7.30;96130.00;;;;5116220;27;20194;-63
2023/11/06 08:14:45;;;;;;;1.63;1.53;;;;;7.50;96128.00;;;;5106492;27;20199;-63
2023/11/06 08:17:35;;;;;;;2.23;2.07;;;;;7.80;96135.00;;;;5093093;27;20219;-62
2023/11/06 08:20:24;;;;;;;1.70;1.60;;;;;8.10;96136.00;;;;5104846;27;20211;-63
2023/11/06 08:23:13;;;;;;;1.70;1.60;;;;;8.10;96117.00;;;;5097344;28;20223;-63
2023/11/06 08:26:04;;;;;;;1.50;1.40;;;;;8.00;96127.00;;;;5104348;27;21098;-64
2023/11/06 08:28:53;;;;;;;1.73;1.60;;;;;8.00;96129.00;;;;5084089;28;20207;-63
2023/11/06 08:31:42;;;;;;;1.07;1.03;;;;;8.70;96136.00;;;;5088771;27;20208;-62
2023/11/06 08:34:32;;;;;;;2.00;1.90;;;;;9.20;96137.00;;;;5082958;28;20677;-63
2023/11/06 08:37:21;;;;;;;1.87;1.77;;;;;9.80;96150.00;;;;5087764;27;20250;-63
2023/11/06 08:40:11;;;;;;;1.60;1.50;;;;;10.40;96143.00;;;;5093250;27;20687;-63
2023/11/06 08:43:01;;;;;;;1.37;1.27;;;;;10.80;96144.00;;;;5087080;28;20707;-63
2023/11/06 08:45:50;;;;;;;1.17;1.10;;;;;11.00;96146.00;;;;5101531;27;20205;-63
2023/11/06 08:48:42;;;;;;;1.67;1.57;;;;;11.10;96145.00;;;;5095886;28;20211;-63
2023/11/06 08:51:32;;;;;;;1.57;1.47;;;;;10.50;96130.00;;;;5094015;28;20246;-64
2023/11/06 08:54:21;;;;;;;1.10;1.10;;;;;11.40;96153.00;;;;5091105;28;20199;-63
2023/11/06 08:57:10;;;;;;;2.07;1.97;;;;;11.70;96161.00;;;;5104928;27;20601;-64
2023/11/06 09:00:01;;;;;;;1.20;1.10;;;;;12.20;96163.00;;;;5111678;27;20201;-64
2023/11/06 09:02:50;;;;;;;0.87;0.87;;;;;12.40;96160.00;;;;5100794;27;20224;-63
2023/11/06 09:05:39;;;;;;;1.73;1.63;;;;;12.80;96167.00;;;;5110461;27;20205;-64
2023/11/06 09:08:28;;;;;;;0.90;0.90;;;;;12.90;96168.00;;;;5110360;27;20561;-62
2023/11/06 09:11:17;;;;;;;1.13;1.10;;;;;13.00;96172.00;;;;5107239;27;20259;-63
2023/11/06 09:14:07;;;;;;;0.80;0.80;;;;;13.10;96166.00;;;;5105532;27;20194;-63
2023/11/06 09:16:59;;;;;;;2.53;2.10;;;;;13.10;96168.00;;;;5104307;22;20247;-72
2023/11/06 09:19:48;;;;;;;1.20;1.10;;;;;13.50;96166.00;;;;5069883;28;21275;-71
2023/11/06 09:22:37;;;;;;;2.17;1.80;;;;;13.70;96172.00;;;;5070822;28;20203;-71
2023/11/06 09:25:26;;;;;;;1.10;1.03;;;;;13.80;96170.00;;;;5065848;28;20262;-73
2023/11/06 09:28:15;;;;;;;1.20;1.10;;;;;13.90;96162.00;;;;5072981;28;20238;-72
2023/11/06 09:31:05;;;;;;;1.67;1.40;;;;;14.00;96167.00;;;;5079564;28;20200;-72
2023/11/06 09:33:56;;;;;;;1.13;1.03;;;;;14.00;96169.00;;;;5085181;28;20551;-69
2023/11/06 09:36:45;;;;;;;1.83;1.63;;;;;14.00;96163.00;;;;5078507;28;20621;-71
2023/11/06 09:39:35;;;;;;;2.40;2.10;;;;;14.40;96162.00;;;;5087532;28;20797;-71
2023/11/06 09:42:25;;;;;;;1.23;1.13;;;;;14.30;96152.00;;;;5075618;28;20212;-71
2023/11/06 09:45:14;;;;;;;1.40;1.30;;;;;14.60;96163.00;;;;5077877;28;20669;-73
2023/11/06 09:48:08;;;;;;;1.27;1.10;;;;;14.90;96158.00;;;;5084525;28;20246;-72
2023/11/06 09:50:59;;;;;;;1.60;1.50;;;;;14.60;96160.00;;;;5070361;28;20208;-72
2023/11/06 09:53:50;;;;;;;1.63;1.53;;;;;15.00;96163.00;;;;5073670;28;20227;-71
2023/11/06 09:56:42;;;;;;;2.53;2.23;;;;;15.10;96164.00;;;;5084095;28;20298;-71
2023/11/06 09:59:31;;;;;;;1.60;1.47;;;;;15.20;96163.00;;;;5082247;28;20210;-72
2023/11/06 10:02:23;;;;;;;1.80;1.70;;;;;15.70;96159.00;;;;5081124;28;20677;-73
2023/11/06 10:05:16;;;;;;;1.70;1.60;;;;;15.10;96158.00;;;;5081620;28;20207;-72
2023/11/06 10:08:07;;;;;;;1.13;1.03;;;;;15.20;96163.00;;;;5081247;28;20231;-71
2023/11/06 10:11:00;;;;;;;2.07;1.77;;;;;16.00;96157.00;;;;5081273;28;20191;-72
2023/11/06 10:13:53;;;;;;;1.53;1.30;;;;;16.50;96161.00;;;;5082744;28;20253;-73
2023/11/06 10:16:43;;;;;;;3.10;2.57;;;;;16.90;96156.00;;;;5079800;28;20728;-72
2023/11/06 10:19:33;;;;;;;2.40;2.00;;;;;17.20;96162.00;;;;5083358;28;20203;-72
2023/11/06 10:22:22;;;;;;;1.93;1.67;;;;;18.10;96169.00;;;;5085038;28;20308;-71
2023/11/06 10:25:12;;;;;;;2.30;1.60;;;;;18.50;96168.00;;;;5089204;28;20217;-71
2023/11/06 10:28:01;;;;;;;2.07;1.40;;;;;19.00;96161.00;;;;5086745;28;20218;-70
2023/11/06 10:30:51;;;;;;;1.57;1.23;;;;;19.60;96157.00;;;;5088838;28;20225;-72
2023/11/06 10:33:41;;;;;;;4.20;2.90;;;;;18.90;96147.00;;;;5086124;28;20236;-73
2023/11/06 10:36:31;;;;;;;2.03;1.53;;;;;19.70;96142.00;;;;5077266;28;20672;-71
2023/11/06 10:39:20;;;;;;;2.83;1.83;;;;;19.80;96146.00;;;;5088433;28;20203;-72
2023/11/06 10:42:10;;;;;;;3.97;2.60;;;;;19.60;96147.00;;;;5090154;28;20217;-72
2023/11/06 10:45:01;;;;;;;1.83;1.40;;;;;19.80;96145.00;;;;5090489;28;20202;-73
2023/11/06 10:47:55;;;;;;;1.87;1.30;;;;;20.00;96151.00;;;;5093170;28;20223;-73
2023/11/06 10:50:46;;;;;;;2.60;1.63;;;;;20.40;96150.00;;;;5096616;28;20210;-71
2023/11/06 10:53:36;;;;;;;4.63;2.80;;;;;20.00;96143.00;;;;5090380;28;20694;-73
2023/11/06 10:56:26;;;;;;;3.43;2.10;;;;;19.50;96131.00;;;;5094240;28;20764;-74
2023/11/06 10:59:16;;;;;;;1.67;1.17;;;;;19.80;96139.00;;;;5089911;28;20242;-73
2023/11/06 11:02:06;;;;;;;3.63;2.30;;;;;20.90;96130.00;;;;5089588;28;20203;-73
2023/11/06 11:04:55;;;;;;;1.43;1.10;;;;;20.10;96126.00;;;;5092820;28;20195;-73
2023/11/06 11:07:46;;;;;;;4.07;2.47;;;;;19.00;96135.00;;;;5092806;28;20218;-73
2023/11/06 11:10:35;;;;;;;3.03;2.20;;;;;19.70;96128.00;;;;5091407;28;20250;-73
2023/11/06 11:13:24;;;;;;;3.00;2.20;;;;;20.30;96134.00;;;;5079115;28;20208;-74
2023/11/06 11:16:40;;;;;;;2.77;1.73;;;;;19.90;96144.00;;;;5086195;28;20207;-72
2023/11/06 11:19:31;;;;;;;2.40;1.70;;;;;20.60;96137.00;;;;5083952;28;20208;-74
2023/11/06 11:22:20;;;;;;;3.23;2.10;;;;;20.60;96146.00;;;;5077249;28;20234;-72
2023/11/06 11:25:09;;;;;;;2.87;1.77;;;;;21.10;96145.00;;;;5075520;28;20199;-74
2023/11/06 11:28:13;;;;;;;3.60;2.03;;;;;20.80;96150.00;;;;5092724;28;20238;-73
2023/11/06 11:31:36;;;;;;;2.23;1.40;;;;;20.80;96140.00;;;;5081378;28;20238;-72
2023/11/06 11:34:30;;;;;;;3.20;2.00;;;;;21.80;96161.00;;;;5079305;28;20227;-74
2023/11/06 11:37:37;;;;;;;4.53;2.67;;;;;22.30;96151.00;;;;5085616;28;20231;-71
2023/11/06 11:40:53;;;;;;;4.30;2.33;;;;;22.50;96154.00;;;;5080471;28;20214;-72
2023/11/06 11:43:47;;;;;;;9.20;4.03;;;;;23.40;96156.00;;;;5081680;28;20203;-72
2023/11/06 11:46:55;;;;;;;16.37;5.43;;;;;23.60;96159.00;;;;5078515;28;20223;-72
2023/11/06 11:49:49;;;;;;;56.20;51.50;;;;;23.50;96159.00;;;;5084372;28;20627;-72
2023/11/06 11:52:44;;;;;;;16.63;5.57;;;;;23.80;96159.00;;;;5081474;28;20213;-73
2023/11/06 11:55:35;;;;;;;6.50;2.13;;;;;22.00;96158.00;;;;5080682;28;20206;-73
2023/11/06 11:58:24;;;;;;;12.37;4.07;;;;;23.40;96154.00;;;;5081773;28;20227;-74
2023/11/06 12:01:14;;;;;;;11.03;3.67;;;;;24.20;96160.00;;;;5081448;28;20206;-71
2023/11/06 12:04:18;;;;;;;8.17;2.77;;;;;24.30;96155.00;;;;5085417;28;20209;-74
2023/11/06 12:07:09;;;;;;;11.10;3.73;;;;;24.90;96162.00;;;;5087804;28;20227;-74
2023/11/06 12:09:59;;;;;;;7.97;2.63;;;;;24.50;96157.00;;;;5080624;28;20213;-71
2023/11/06 12:12:48;;;;;;;11.30;3.87;;;;;24.70;96159.00;;;;5082898;28;20200;-74
2023/11/06 12:15:37;;;;;;;10.57;3.70;;;;;25.00;96161.00;;;;5084968;28;20205;-74
2023/11/06 12:18:26;;;;;;;8.70;3.13;;;;;25.40;96154.00;;;;5081783;28;20259;-74
2023/11/06 12:21:16;;;;;;;10.33;3.73;;;;;25.50;96159.00;;;;5087343;28;20213;-72
2023/11/06 12:24:09;;;;;;;9.90;3.67;;;;;26.20;96160.00;;;;5082796;28;20206;-71
2023/11/06 12:26:58;;;;;;;9.57;4.32;;;;;25.90;96160.00;;;;5085246;28;20222;-72
2023/11/06 12:29:47;;;;;;;20.55;11.07;;;;;26.30;96167.00;;;;5086592;28;20199;-73
2023/11/06 12:32:37;;;;;;;38.72;35.10;;;;;26.60;96161.00;;;;5080923;28;20567;-72
2023/11/06 12:35:26;;;;;;;99.50;95.22;;;;;26.80;96161.00;;;;5082006;28;20203;-72
2023/11/06 12:38:16;;;;;;;643.60;614.47;;;;;27.20;96155.00;;;;5085321;28;20482;-72
2023/11/06 12:41:07;;;;;;;102.80;98.28;;;;;28.10;96151.00;;;;5082300;28;20589;-72
2023/11/06 12:43:56;;;;;;;43.10;40.50;;;;;28.50;96150.00;;;;5084882;28;20210;-73
2023/11/06 12:46:45;;;;;;;42.22;39.30;;;;;28.30;96146.00;;;;5086361;28;20634;-74
2023/11/06 12:49:50;;;;;;;46.80;44.20;;;;;28.50;96157.00;;;;5078522;28;20208;-72
2023/11/06 12:52:41;;;;;;;63.58;59.75;;;;;28.80;96156.00;;;;5073010;28;20203;-72
2023/11/06 12:55:31;;;;;;;118.35;113.30;;;;;29.10;96149.00;;;;5075445;28;20979;-72
2023/11/06 12:58:22;;;;;;;174.70;167.45;;;;;28.40;96163.00;;;;5084118;28;20233;-73
2023/11/06 13:01:20;;;;;;;388.75;373.55;;;;;28.50;96164.00;;;;5080057;28;20340;-72
2023/11/06 13:04:09;;;;;;;496.10;472.80;;;;;28.80;96177.00;;;;5081072;28;20199;-72
2023/11/06 13:06:58;;;;;;;238.50;229.27;;;;;28.40;96173.00;;;;5079822;28;20748;-72
2023/11/06 13:09:47;;;;;;;163.13;155.98;;;;;28.40;96187.00;;;;5085760;28;20199;-72
2023/11/06 13:12:37;;;;;;;134.75;128.70;;;;;28.50;96184.00;;;;5076232;28;20222;-73
2023/11/06 13:15:27;;;;;;;144.57;138.55;;;;;28.90;96192.00;;;;5082082;28;20210;-74
2023/11/06 13:18:18;;;;;;;132.45;126.93;;;;;28.20;96187.00;;;;5080498;28;20253;-72
2023/11/06 13:21:18;;;;;;;121.82;117.22;;;;;29.10;96185.00;;;;5078989;28;20259;-72
2023/11/06 13:24:08;;;;;;;105.68;101.38;;;;;28.00;96197.00;;;;5081594;28;20207;-73
2023/11/06 13:26:57;;;;;;;87.30;83.57;;;;;28.60;96194.00;;;;5080674;28;20220;-74
2023/11/06 13:29:47;;;;;;;95.95;91.07;;;;;28.70;96188.00;;;;5085226;28;20202;-72
2023/11/06 13:32:42;;;;;;;73.45;69.28;;;;;28.30;96190.00;;;;5087278;28;20206;-73
2023/11/06 13:35:31;;;;;;;66.97;63.65;;;;;26.00;96199.00;;;;5090864;28;20199;-72
2023/11/06 13:38:20;;;;;;;42.13;39.70;;;;;26.30;96188.00;;;;5078677;28;20275;-72
2023/11/06 13:41:19;;;;;;;31.02;29.30;;;;;27.50;96201.00;;;;5084990;28;20237;-72
2023/11/06 13:44:12;;;;;;;29.17;26.95;;;;;27.90;96211.00;;;;5072581;28;20230;-72
2023/11/06 13:47:01;;;;;;;37.03;34.33;;;;;28.40;96209.00;;;;5088094;28;20234;-73
2023/11/06 13:49:51;;;;;;;31.35;28.85;;;;;28.60;96212.00;;;;5078584;28;20211;-73
2023/11/06 13:52:42;;;;;;;33.75;30.88;;;;;28.10;96221.00;;;;5079994;28;20219;-73
2023/11/06 13:55:37;;;;;;;28.27;26.15;;;;;27.40;96215.00;;;;5079408;28;20216;-73
2023/11/06 13:58:28;;;;;;;20.52;18.58;;;;;27.50;96214.00;;;;5075239;28;20223;-73
2023/11/06 14:01:21;;;;;;;14.82;13.50;;;;;28.00;96217.00;;;;5075631;28;20213;-72
2023/11/06 14:04:10;;;;;;;12.52;11.15;;;;;25.20;96211.00;;;;5071141;28;20204;-72
2023/11/06 14:07:04;;;;;;;15.75;7.85;;;;;26.30;96218.00;;;;5082785;28;20741;-71
2023/11/06 14:09:53;;;;;;;11.68;5.43;;;;;23.70;96219.00;;;;5084762;28;20485;-73
2023/11/06 14:12:42;;;;;;;16.15;6.10;;;;;21.90;96220.00;;;;5080431;28;20229;-75
2023/11/06 14:15:31;;;;;;;11.90;4.35;;;;;23.10;96220.00;;;;5086528;28;20205;-75
2023/11/06 14:18:22;;;;;;;12.90;4.60;;;;;22.90;96230.00;;;;5083723;28;20229;-74